createdAt,value
2018-12-03T00:00:20.508Z,13.10
2018-12-03T00:02:49.292Z,13.10
2018-12-03T00:05:17.532Z,12.87
2018-12-03T00:07:45.788Z,14.00
2018-12-03T00:10:14.056Z,13.67
2018-12-03T00:12:42.309Z,14.27
2018-12-03T00:15:10.553Z,13.93
2018-12-03T00:17:38.781Z,14.33
2018-12-03T00:20:09.137Z,13.83
2018-12-03T00:22:37.400Z,14.73
2018-12-03T00:25:06.689Z,14.73
2018-12-03T00:27:35.073Z,14.90
2018-12-03T00:30:03.489Z,14.57
2018-12-03T00:32:31.793Z,14.57
2018-12-03T00:35:00.053Z,15.47
2018-12-03T00:37:28.293Z,15.50
2018-12-03T00:39:56.541Z,15.30
2018-12-03T00:42:24.770Z,15.60
2018-12-03T00:44:53.021Z,15.53
2018-12-03T00:47:21.541Z,15.47
2018-12-03T00:49:49.774Z,15.33
2018-12-03T00:52:18.037Z,16.20
2018-12-03T00:54:46.281Z,15.40
2018-12-03T00:57:14.521Z,14.67
2018-12-03T00:59:42.769Z,13.43
2018-12-03T01:02:16.369Z,13.80
2018-12-03T01:04:44.657Z,13.57
2018-12-03T01:07:12.934Z,12.97
2018-12-03T01:09:41.186Z,12.73
2018-12-03T01:12:09.454Z,13.37
2018-12-03T01:14:37.801Z,12.70
2018-12-03T01:17:06.062Z,13.53
2018-12-03T01:19:34.318Z,13.43
2018-12-03T01:22:02.554Z,13.77
2018-12-03T01:24:30.802Z,13.50
2018-12-03T01:26:59.082Z,13.40
2018-12-03T01:29:27.313Z,13.10
2018-12-03T01:31:56.374Z,12.70
2018-12-03T01:34:24.617Z,11.93
2018-12-03T01:36:52.846Z,12.20
2018-12-03T01:39:21.086Z,11.70
2018-12-03T01:41:49.337Z,11.37
2018-12-03T01:44:17.582Z,10.57
2018-12-03T01:46:45.842Z,10.57
2018-12-03T01:49:14.079Z,11.23
2018-12-03T01:51:42.326Z,11.10
2018-12-03T01:54:10.596Z,10.27
2018-12-03T01:56:38.847Z,11.00
2018-12-03T01:59:07.102Z,10.73
2018-12-03T02:01:35.358Z,11.53
2018-12-03T02:04:03.630Z,10.33
2018-12-03T02:06:31.884Z,9.37
2018-12-03T02:09:00.131Z,8.63
2018-12-03T02:11:28.366Z,8.43
2018-12-03T02:13:56.610Z,8.43
2018-12-03T02:16:24.886Z,8.20
2018-12-03T02:18:53.430Z,8.30
2018-12-03T02:21:21.658Z,7.83
2018-12-03T02:23:49.882Z,7.50
2018-12-03T02:26:18.110Z,6.60
2018-12-03T02:28:46.335Z,6.80
2018-12-03T02:31:14.562Z,7.40
2018-12-03T02:33:42.804Z,6.93
2018-12-03T02:36:11.032Z,6.80
2018-12-03T02:38:39.282Z,5.57
2018-12-03T02:41:07.559Z,4.87
2018-12-03T02:43:35.802Z,4.90
2018-12-03T02:46:04.034Z,5.10
2018-12-03T02:48:32.278Z,5.13
2018-12-03T02:51:00.523Z,4.87
2018-12-03T02:53:28.779Z,4.83
2018-12-03T02:55:57.015Z,4.50
2018-12-03T02:58:25.266Z,5.10
2018-12-03T03:00:53.503Z,4.70
2018-12-03T03:03:21.759Z,5.00
2018-12-03T03:05:50.011Z,5.17
2018-12-03T03:08:18.259Z,4.83
2018-12-03T03:10:46.550Z,4.13
2018-12-03T03:13:14.779Z,4.77
2018-12-03T03:15:43.015Z,4.60
2018-12-03T03:18:11.250Z,4.53
2018-12-03T03:20:39.511Z,4.80
2018-12-03T03:23:07.743Z,4.70
2018-12-03T03:25:36.220Z,5.30
2018-12-03T03:28:04.467Z,5.60
2018-12-03T03:30:32.702Z,5.47
2018-12-03T03:33:00.972Z,5.30
2018-12-03T03:35:29.211Z,5.43
2018-12-03T03:37:57.454Z,5.60
2018-12-03T03:40:25.808Z,5.00
2018-12-03T03:42:54.051Z,5.17
2018-12-03T03:45:23.552Z,5.57
2018-12-03T03:47:51.809Z,6.17
2018-12-03T03:50:20.143Z,7.43
2018-12-03T03:52:48.416Z,7.50
2018-12-03T03:55:16.651Z,8.87
2018-12-03T03:57:44.911Z,9.47
2018-12-03T04:00:15.400Z,9.17
2018-12-03T04:02:43.687Z,9.97
2018-12-03T04:05:14.001Z,10.97
2018-12-03T04:07:43.696Z,11.70
2018-12-03T04:10:13.930Z,10.87
2018-12-03T04:12:42.839Z,11.40
2018-12-03T04:15:12.615Z,10.73
2018-12-03T04:17:40.928Z,11.30
2018-12-03T04:20:11.077Z,11.53
2018-12-03T04:22:39.332Z,11.70
2018-12-03T04:25:08.835Z,10.87
2018-12-03T04:27:37.095Z,10.30
2018-12-03T04:30:09.624Z,10.47
2018-12-03T04:32:37.864Z,10.13
2018-12-03T04:35:07.048Z,10.13
2018-12-03T04:37:35.296Z,9.80
2018-12-03T04:40:03.946Z,8.50
2018-12-03T04:42:32.182Z,8.43
2018-12-03T04:45:00.419Z,8.43
2018-12-03T04:47:28.649Z,7.90
2018-12-03T04:49:56.901Z,7.43
2018-12-03T04:52:25.148Z,7.23
2018-12-03T04:54:53.381Z,6.30
2018-12-03T04:57:21.642Z,5.83
2018-12-03T04:59:49.898Z,5.63
2018-12-03T05:05:17.085Z,5.07
2018-12-03T05:07:45.533Z,4.80
2018-12-03T05:10:18.201Z,4.97
2018-12-03T05:12:47.777Z,4.80
2018-12-03T05:15:16.765Z,5.37
2018-12-03T05:17:45.598Z,5.50
2018-12-03T05:20:15.274Z,5.87
2018-12-03T05:22:44.181Z,5.90
2018-12-03T05:25:18.968Z,6.17
2018-12-03T05:27:43.457Z,6.30
2018-12-03T05:30:15.991Z,6.30
2018-12-03T05:32:45.062Z,5.73
2018-12-03T05:35:26.897Z,6.73
2018-12-03T05:37:55.270Z,6.40
2018-12-03T05:40:30.590Z,6.43
2018-12-03T05:42:59.030Z,6.73
2018-12-03T05:45:27.274Z,6.70
2018-12-03T05:47:56.009Z,6.63
2018-12-03T05:50:24.441Z,6.60
2018-12-03T05:52:52.786Z,6.63
2018-12-03T05:55:21.102Z,5.73
2018-12-03T05:57:49.585Z,6.67
2018-12-03T06:00:19.570Z,6.83
2018-12-03T06:02:47.863Z,6.43
2018-12-03T06:05:16.606Z,6.20
2018-12-03T06:07:45.046Z,6.60
2018-12-03T06:10:20.655Z,5.93
2018-12-03T06:12:49.551Z,5.60
2018-12-03T06:15:19.240Z,5.77
2018-12-03T06:17:48.503Z,5.20
2018-12-03T06:20:17.951Z,5.90
2018-12-03T06:22:47.141Z,5.40
2018-12-03T06:25:20.351Z,5.80
2018-12-03T06:27:49.107Z,5.83
2018-12-03T06:30:21.927Z,5.57
2018-12-03T06:32:50.400Z,6.20
2018-12-03T06:35:19.597Z,6.00
2018-12-03T06:37:48.259Z,4.93
2018-12-03T06:40:30.055Z,4.97
2018-12-03T06:42:58.791Z,4.17
2018-12-03T06:45:27.651Z,5.37
2018-12-03T06:48:00.559Z,4.67
2018-12-03T06:50:29.044Z,8.20
2018-12-03T06:52:57.415Z,8.67
2018-12-03T06:55:25.875Z,5.53
2018-12-03T06:57:54.503Z,5.90
2018-12-03T07:00:24.043Z,6.90
2018-12-03T07:02:52.868Z,6.60
2018-12-03T07:05:21.314Z,5.00
2018-12-03T07:07:51.684Z,5.23
2018-12-03T07:10:20.829Z,4.80
2018-12-03T07:12:57.212Z,5.00
2018-12-03T07:15:26.010Z,5.30
2018-12-03T07:17:56.372Z,5.50
2018-12-03T07:20:24.628Z,5.57
2018-12-03T07:22:53.067Z,5.80
2018-12-03T07:25:21.730Z,6.27
2018-12-03T07:27:50.404Z,6.57
2018-12-03T07:30:20.672Z,6.57
2018-12-03T07:32:49.868Z,7.37
2018-12-03T07:35:19.145Z,7.00
2018-12-03T07:37:48.027Z,7.40
2018-12-03T07:40:16.490Z,6.63
2018-12-03T07:42:45.304Z,6.87
2018-12-03T07:45:14.808Z,5.60
2018-12-03T07:47:43.217Z,6.30
2018-12-03T07:50:12.888Z,5.77
2018-12-03T07:52:41.308Z,5.77
2018-12-03T07:55:10.905Z,5.57
2018-12-03T07:57:40.617Z,5.40
2018-12-03T08:00:11.530Z,5.20
2018-12-03T08:02:39.913Z,5.37
2018-12-03T08:05:09.409Z,5.03
2018-12-03T08:07:37.913Z,5.37
2018-12-03T08:10:16.665Z,4.80
2018-12-03T08:12:45.837Z,6.10
2018-12-03T08:15:18.561Z,5.50
2018-12-03T08:18:30.150Z,5.40
2018-12-03T08:25:04.449Z,5.23
2018-12-03T08:45:59.589Z,4.60
2018-12-03T08:48:35.022Z,4.90
2018-12-03T08:51:03.594Z,4.90
2018-12-03T08:53:31.826Z,4.40
2018-12-03T08:56:00.110Z,5.60
2018-12-03T08:58:28.458Z,4.87
2018-12-03T09:00:57.005Z,5.17
2018-12-03T09:03:29.926Z,4.73
2018-12-03T09:06:02.959Z,5.53
2018-12-03T09:08:31.242Z,5.50
2018-12-03T09:10:59.658Z,5.37
2018-12-03T09:13:28.151Z,5.70
2018-12-03T09:16:05.694Z,4.83
2018-12-03T09:18:40.991Z,5.03
2018-12-03T09:21:16.934Z,5.23
2018-12-03T09:23:46.655Z,5.70
2018-12-03T09:26:15.938Z,5.13
2018-12-03T09:28:44.406Z,5.77
2018-12-03T09:31:20.320Z,5.83
2018-12-03T09:33:59.167Z,5.90
2018-12-03T09:36:28.447Z,5.83
2018-12-03T09:39:10.759Z,5.80
2018-12-03T09:41:39.528Z,5.40
2018-12-03T09:44:08.375Z,6.10
2018-12-03T09:46:36.767Z,6.47
2018-12-03T09:49:05.543Z,5.47
2018-12-03T09:51:35.555Z,5.97
2018-12-03T09:54:10.883Z,5.63
2018-12-03T09:56:58.663Z,5.60
2018-12-03T09:59:46.468Z,5.37
2018-12-03T10:02:34.327Z,6.03
2018-12-03T10:05:02.671Z,5.77
2018-12-03T10:07:31.138Z,5.43
2018-12-03T10:10:19.232Z,5.33
2018-12-03T10:13:07.707Z,5.80
2018-12-03T10:15:36.167Z,5.17
2018-12-03T10:18:24.212Z,5.37
2018-12-03T10:20:54.568Z,5.40
2018-12-03T10:23:23.136Z,5.77
2018-12-03T10:26:11.588Z,7.60
2018-12-03T10:28:59.316Z,6.37
2018-12-03T10:31:27.675Z,5.20
2018-12-03T10:33:56.132Z,5.70
2018-12-03T10:37:03.237Z,5.70
2018-12-03T10:39:51.233Z,5.10
2018-12-03T10:42:39.016Z,5.87
2018-12-03T10:45:27.029Z,5.77
2018-12-03T10:48:14.949Z,5.63
2018-12-03T10:50:43.722Z,5.27
2018-12-03T10:53:31.748Z,4.87
2018-12-03T10:56:19.580Z,5.60
2018-12-03T10:58:48.032Z,5.30
2018-12-03T11:01:54.954Z,5.67
2018-12-03T11:04:42.548Z,4.80
2018-12-03T11:07:30.300Z,4.97
2018-12-03T11:10:18.071Z,4.77
2018-12-03T11:13:05.956Z,5.70
2018-12-03T11:15:53.733Z,5.97
2018-12-03T11:18:42.647Z,5.57
2018-12-03T11:21:11.004Z,5.53
2018-12-03T11:23:39.463Z,5.10
2018-12-03T11:26:46.576Z,5.20
2018-12-03T11:29:38.782Z,6.83
2018-12-03T11:32:07.248Z,5.53
2018-12-03T11:34:55.012Z,6.27
2018-12-03T11:38:04.620Z,6.07
2018-12-03T11:40:53.567Z,5.93
2018-12-03T11:43:41.320Z,5.57
2018-12-03T11:46:09.764Z,6.57
2018-12-03T11:48:57.517Z,6.03
2018-12-03T11:51:45.280Z,5.47
2018-12-03T11:54:33.348Z,5.40
2018-12-03T11:57:21.109Z,6.37
2018-12-03T11:59:49.749Z,5.63
2018-12-03T12:02:18.060Z,4.80
2018-12-03T12:05:06.436Z,6.00
2018-12-03T12:07:54.215Z,5.80
2018-12-03T12:10:22.775Z,6.33
2018-12-03T12:12:51.283Z,6.80
2018-12-03T12:15:39.049Z,6.33
2018-12-03T12:18:26.801Z,7.03
2018-12-03T12:21:14.569Z,5.17
2018-12-03T12:23:42.977Z,6.03
2018-12-03T12:26:11.426Z,5.10
2018-12-03T12:28:59.169Z,5.20
2018-12-03T12:31:46.879Z,5.70
2018-12-03T12:34:35.033Z,5.90
2018-12-03T12:37:23.081Z,5.30
2018-12-03T12:40:11.568Z,5.37
2018-12-03T12:42:52.605Z,6.40
2018-12-03T12:45:33.454Z,5.87
2018-12-03T12:48:14.343Z,5.83
2018-12-03T12:50:42.804Z,6.73
2018-12-03T12:53:30.560Z,6.90
2018-12-03T12:56:18.320Z,6.03
2018-12-03T12:58:46.557Z,6.17
2018-12-03T13:01:14.896Z,6.33
2018-12-03T13:04:02.724Z,6.30
2018-12-03T13:06:50.420Z,6.50
2018-12-03T13:09:38.207Z,6.43
2018-12-03T13:12:25.976Z,7.57
2018-12-03T13:15:13.952Z,7.33
2018-12-03T13:17:44.509Z,7.50
2018-12-03T13:20:32.276Z,7.10
2018-12-03T13:23:20.044Z,8.60
2018-12-03T13:26:08.132Z,7.27
2018-12-03T13:28:55.896Z,6.73
2018-12-03T13:34:42.476Z,7.53
2018-12-03T13:37:30.252Z,7.80
2018-12-03T13:40:18.227Z,7.60
2018-12-03T13:43:06.012Z,7.87
2018-12-03T13:45:53.774Z,8.27
2018-12-03T13:48:41.558Z,7.67
2018-12-03T13:51:29.464Z,7.53
2018-12-03T13:54:17.239Z,7.30
2018-12-03T13:56:45.649Z,7.23
2018-12-03T13:59:33.432Z,7.20
2018-12-03T14:02:21.769Z,6.73
2018-12-03T14:05:10.304Z,7.30
2018-12-03T14:08:17.410Z,7.20
2018-12-03T14:11:24.489Z,7.00
2018-12-03T14:14:31.698Z,7.03
2018-12-03T14:17:38.816Z,5.77
2018-12-03T14:20:28.476Z,4.80
2018-12-03T14:23:17.853Z,5.77
2018-12-03T14:26:06.029Z,5.47
2018-12-03T14:28:53.820Z,5.43
2018-12-03T14:31:41.618Z,5.50
2018-12-03T14:34:29.641Z,5.23
2018-12-03T14:37:17.444Z,6.07
2018-12-03T14:39:45.785Z,5.20
2018-12-03T14:42:33.500Z,6.27
2018-12-03T14:45:21.252Z,4.93
2018-12-03T14:48:09.624Z,4.17
2018-12-03T14:50:57.376Z,4.10
2018-12-03T14:53:45.069Z,3.30
2018-12-03T14:56:32.824Z,3.30
2018-12-03T14:59:20.612Z,3.20
2018-12-03T15:02:08.373Z,2.87
2018-12-03T15:04:56.137Z,3.27
2018-12-03T15:07:43.897Z,4.30
2018-12-03T15:10:31.585Z,3.77
2018-12-03T15:13:19.357Z,4.00
2018-12-03T15:16:07.132Z,5.23
2018-12-03T15:18:54.796Z,5.40
2018-12-03T15:21:23.065Z,5.53
2018-12-03T15:24:13.406Z,5.90
2018-12-03T15:27:00.537Z,5.23
2018-12-03T15:29:48.281Z,5.93
2018-12-03T15:32:35.985Z,8.50
2018-12-03T15:35:23.757Z,7.70
2018-12-03T15:38:11.457Z,6.90
2018-12-03T15:40:59.213Z,6.87
2018-12-03T15:43:46.905Z,6.37
2018-12-03T15:46:34.593Z,7.33
2018-12-03T15:49:22.281Z,7.70
2018-12-03T15:51:50.701Z,6.87
2018-12-03T15:54:19.126Z,8.47
2018-12-03T15:57:06.906Z,7.17
2018-12-03T15:59:35.166Z,7.73
2018-12-03T16:02:22.944Z,8.43
2018-12-03T16:04:51.310Z,8.40
2018-12-03T16:07:19.833Z,6.70
2018-12-03T16:10:09.210Z,5.50
2018-12-03T16:12:56.913Z,7.00
2018-12-03T16:15:44.591Z,5.93
2018-12-03T16:18:13.026Z,7.50
2018-12-03T16:21:00.794Z,6.13
2018-12-03T16:23:48.958Z,6.93
2018-12-03T16:26:36.710Z,6.90
2018-12-03T16:29:24.410Z,7.60
2018-12-03T16:32:12.426Z,6.87
2018-12-03T16:34:40.762Z,7.87
2018-12-03T16:37:28.430Z,7.83
2018-12-03T16:40:16.218Z,7.07
2018-12-03T16:43:03.999Z,5.23
2018-12-03T16:45:32.527Z,5.30
2018-12-03T16:48:20.195Z,5.23
2018-12-03T16:50:48.539Z,6.00
2018-12-03T16:53:36.394Z,4.23
2018-12-03T16:56:08.011Z,5.23
2018-12-03T16:58:36.431Z,4.97
2018-12-03T17:01:24.187Z,5.17
2018-12-03T17:04:12.302Z,5.00
2018-12-03T17:07:00.059Z,5.43
2018-12-03T17:09:47.819Z,4.73
2018-12-03T17:12:17.335Z,5.27
2018-12-03T17:15:05.424Z,5.27
2018-12-03T17:17:53.080Z,5.23
2018-12-03T17:21:00.195Z,5.30
2018-12-03T17:24:07.283Z,5.50
2018-12-03T17:26:55.059Z,5.50
2018-12-03T17:29:42.808Z,5.87
2018-12-03T17:32:30.503Z,5.63
2018-12-03T17:35:18.251Z,5.80
2018-12-03T17:38:06.030Z,5.70
2018-12-03T17:40:53.800Z,6.20
2018-12-03T17:43:41.475Z,6.10
2018-12-03T17:46:09.876Z,6.13
2018-12-03T17:48:39.096Z,5.67
2018-12-03T17:51:27.048Z,6.50
2018-12-03T17:54:14.824Z,8.10
2018-12-03T17:57:02.599Z,6.03
2018-12-03T17:59:50.285Z,6.33
2018-12-03T18:02:38.304Z,6.30
2018-12-03T18:05:25.990Z,10.60
2018-12-03T18:08:13.753Z,8.30
2018-12-03T18:11:01.529Z,8.00
2018-12-03T18:13:49.217Z,8.37
2018-12-03T18:16:17.668Z,7.13
2018-12-03T18:19:05.322Z,7.90
2018-12-03T18:21:53.112Z,7.27
2018-12-03T18:24:40.776Z,10.20
2018-12-03T18:30:27.804Z,8.90
2018-12-03T18:33:15.650Z,12.33
2018-12-03T18:36:03.428Z,9.07
2018-12-03T18:38:51.208Z,9.63
2018-12-03T18:41:38.902Z,9.50
2018-12-03T18:44:26.583Z,10.40
2018-12-03T18:47:14.309Z,10.00
2018-12-03T18:50:03.348Z,13.10
2018-12-03T18:52:51.125Z,11.13
2018-12-03T18:55:38.816Z,10.13
2018-12-03T18:58:45.900Z,10.50
2018-12-03T19:01:14.364Z,11.37
2018-12-03T19:04:02.390Z,11.80
2018-12-03T19:06:51.728Z,12.07
2018-12-03T19:09:39.749Z,11.50
2018-12-03T19:12:27.571Z,12.13
2018-12-03T19:14:55.996Z,11.70
2018-12-03T19:17:43.852Z,11.57
2018-12-03T19:20:12.132Z,12.40
2018-12-03T19:22:59.909Z,13.53
2018-12-03T19:25:47.572Z,12.93
2018-12-03T19:28:35.009Z,12.13
2018-12-03T19:31:22.440Z,13.13
2018-12-03T19:34:10.125Z,12.93
2018-12-03T19:36:57.552Z,13.27
2018-12-03T19:39:44.977Z,13.77
2018-12-03T19:42:32.412Z,13.37
2018-12-03T19:45:19.813Z,13.27
2018-12-03T19:48:07.269Z,12.67
2018-12-03T19:50:54.692Z,12.67
2018-12-03T19:53:42.140Z,12.00
2018-12-03T19:56:30.211Z,11.93
2018-12-03T19:59:18.021Z,12.10
2018-12-03T20:02:05.445Z,9.90
2018-12-03T20:04:53.428Z,9.50
2018-12-03T20:07:21.544Z,9.63
2018-12-03T20:10:08.980Z,8.90
2018-12-03T20:12:37.165Z,9.90
2018-12-03T20:15:24.597Z,9.43
2018-12-03T20:18:12.014Z,10.47
2018-12-03T20:20:59.457Z,10.47
2018-12-03T20:23:46.873Z,10.97
2018-12-03T20:26:34.330Z,11.53
2018-12-03T20:29:22.001Z,11.20
2018-12-03T20:32:09.508Z,12.10
2018-12-03T20:34:56.921Z,12.27
2018-12-03T20:37:44.405Z,12.13
2018-12-03T20:40:31.817Z,12.83
2018-12-03T20:43:19.278Z,13.03
2018-12-03T20:46:06.705Z,13.57
2018-12-03T20:48:54.133Z,14.30
2018-12-03T20:51:41.837Z,13.80
2018-12-03T20:54:29.654Z,13.53
2018-12-03T20:57:17.077Z,13.80
2018-12-03T20:59:45.470Z,14.43
2018-12-03T21:59:15.205Z,3.23
2018-12-03T22:01:56.251Z,3.40
2018-12-03T22:04:36.966Z,3.50
2018-12-03T22:07:17.209Z,3.80
2018-12-03T22:09:58.048Z,4.10
2018-12-03T22:12:36.935Z,4.13
2018-12-03T22:15:24.713Z,4.40
2018-12-03T22:18:12.799Z,4.70
2018-12-03T22:21:00.479Z,4.37
2018-12-03T22:23:48.168Z,3.20
2018-12-03T22:26:35.839Z,1.90
2018-12-03T22:29:23.600Z,2.30
2018-12-03T22:32:33.474Z,2.40
2018-12-03T22:35:21.339Z,2.00
2018-12-03T22:37:49.697Z,1.67
2018-12-03T22:40:37.579Z,1.60
2018-12-03T22:43:25.583Z,1.93
2018-12-03T22:46:13.360Z,1.20
2018-12-03T22:49:01.021Z,1.63
2018-12-03T22:51:48.783Z,1.47
2018-12-03T22:54:36.543Z,1.67
2018-12-03T22:57:24.351Z,1.30
2018-12-03T23:00:33.084Z,1.50
2018-12-03T23:03:20.771Z,1.43
2018-12-03T23:06:08.615Z,1.30
2018-12-03T23:08:56.393Z,1.50
2018-12-03T23:11:44.162Z,1.40
2018-12-03T23:14:12.516Z,1.63
2018-12-03T23:17:00.279Z,1.17
2018-12-03T23:19:48.037Z,1.63
2018-12-03T23:22:35.688Z,1.43
2018-12-03T23:25:23.652Z,2.30
2018-12-03T23:28:11.359Z,1.90
2018-12-03T23:30:59.127Z,1.73
2018-12-03T23:33:46.903Z,1.80
2018-12-03T23:36:15.751Z,1.80
2018-12-03T23:39:24.493Z,1.70
2018-12-03T23:41:52.955Z,1.93
2018-12-03T23:44:40.884Z,1.70
2018-12-03T23:47:09.220Z,1.73
2018-12-03T23:49:56.882Z,1.43
2018-12-03T23:52:45.091Z,1.80
2018-12-03T23:55:32.736Z,1.40
2018-12-03T23:58:20.411Z,2.53
